Time;durP1;ratioP1;P1;durP2;ratioP2;P2;SDS_P1;SDS_P2;PMS_P1;PMS_P2;Temp;Humidity;BMP_temperature;BMP_pressure;BME280_temperature;BME280_humidity;BME280_pressure;Samples;Min_cycle;Max_cycle;Signal;HPM_P1;HPM_P2
2023/11/21 00:00:21;;;;;;;9.50;3.40;;;9.60;98.00;;;;;;5033581;28;20566;-69
2023/11/21 00:02:49;;;;;;;11.20;4.00;;;9.50;98.00;;;;;;5033588;28;20468;-68
2023/11/21 00:05:16;;;;;;;6.57;3.40;;;9.50;98.00;;;;;;5033555;28;20461;-69
2023/11/21 00:07:44;;;;;;;11.87;4.30;;;9.50;98.00;;;;;;5033169;28;20487;-69
2023/11/21 00:10:14;;;;;;;9.27;4.17;;;9.50;98.00;;;;;;5031877;28;20454;-69
2023/11/21 00:12:41;;;;;;;6.40;3.40;;;9.50;98.00;;;;;;5033244;28;20448;-68
2023/11/21 00:15:12;;;;;;;7.60;3.40;;;9.50;98.00;;;;;;5033094;28;21175;-68
2023/11/21 00:17:40;;;;;;;5.90;3.20;;;9.50;98.00;;;;;;5033035;28;20447;-69
2023/11/21 00:20:08;;;;;;;7.43;3.50;;;9.50;98.00;;;;;;5032761;28;20462;-69
2023/11/21 00:22:36;;;;;;;8.63;3.70;;;9.50;98.00;;;;;;5031896;28;20952;-69
2023/11/21 00:25:03;;;;;;;8.87;3.73;;;9.60;98.00;;;;;;5032013;28;20458;-69
2023/11/21 00:27:31;;;;;;;8.80;3.87;;;9.60;98.00;;;;;;5032707;28;20579;-68
2023/11/21 00:29:57;;;;;;;6.00;3.77;;;9.70;98.00;;;;;;5032631;28;20464;-68
2023/11/21 00:32:24;;;;;;;6.00;3.47;;;9.70;98.00;;;;;;5032818;28;20498;-68
2023/11/21 00:34:54;;;;;;;6.47;3.33;;;9.60;98.00;;;;;;5031577;28;20465;-69
2023/11/21 00:37:21;;;;;;;10.10;4.47;;;9.50;98.00;;;;;;5032640;28;20509;-68
2023/11/21 00:39:48;;;;;;;8.13;3.87;;;9.50;98.00;;;;;;5032480;28;20463;-69
2023/11/21 00:42:16;;;;;;;6.60;3.50;;;9.60;98.00;;;;;;5032758;28;20827;-69
2023/11/21 00:44:43;;;;;;;7.03;3.33;;;9.60;98.00;;;;;;5032377;28;20455;-69
2023/11/21 00:47:10;;;;;;;4.10;2.97;;;9.70;98.00;;;;;;5032524;28;20986;-68
2023/11/21 00:49:38;;;;;;;6.30;3.70;;;9.60;98.00;;;;;;5032422;28;20451;-68
2023/11/21 00:52:08;;;;;;;9.57;3.20;;;9.50;98.00;;;;;;5031065;28;20457;-69
2023/11/21 00:54:35;;;;;;;8.83;2.80;;;9.60;98.00;;;;;;5031876;28;20486;-69
2023/11/21 00:57:03;;;;;;;4.20;2.70;;;9.60;98.00;;;;;;5032118;28;20457;-69
2023/11/21 00:59:30;;;;;;;6.57;2.43;;;9.70;98.00;;;;;;5031097;28;20941;-69
2023/11/21 01:02:00;;;;;;;4.67;2.70;;;9.70;98.00;;;;;;5032327;28;20451;-69
2023/11/21 01:04:27;;;;;;;5.00;2.23;;;9.60;98.00;;;;;;5032101;28;20520;-68
2023/11/21 01:06:54;;;;;;;2.67;2.10;;;9.70;98.00;;;;;;5032321;28;20902;-69
2023/11/21 01:09:23;;;;;;;5.30;2.20;;;9.70;98.00;;;;;;5031109;28;20469;-68
2023/11/21 01:11:51;;;;;;;8.30;2.17;;;9.60;98.00;;;;;;5032414;28;20453;-69
2023/11/21 01:14:19;;;;;;;4.40;2.20;;;9.70;98.00;;;;;;5032240;28;20474;-68
2023/11/21 01:16:46;;;;;;;3.43;2.30;;;9.60;98.00;;;;;;5032191;28;20457;-68
2023/11/21 01:19:13;;;;;;;2.37;1.80;;;9.50;98.00;;;;;;5032270;28;20482;-69
2023/11/21 01:21:40;;;;;;;3.57;2.40;;;9.50;98.00;;;;;;5032267;28;20453;-69
2023/11/21 01:24:08;;;;;;;4.33;1.93;;;9.50;98.00;;;;;;5030923;28;20508;-68
2023/11/21 01:26:36;;;;;;;11.20;2.17;;;9.60;98.00;;;;;;5030904;28;20519;-70
2023/11/21 01:29:04;;;;;;;8.67;2.33;;;9.50;98.00;;;;;;5032116;28;20446;-68
2023/11/21 01:31:31;;;;;;;4.17;2.40;;;9.60;98.00;;;;;;5030922;28;20451;-68
2023/11/21 01:33:58;;;;;;;4.77;2.07;;;9.70;98.00;;;;;;5031876;28;20450;-68
2023/11/21 01:36:32;;;;;;;2.87;1.87;;;9.80;98.00;;;;;;5032088;28;20455;-69
2023/11/21 01:39:00;;;;;;;4.60;2.00;;;9.70;98.00;;;;;;5032144;28;20481;-68
2023/11/21 01:41:28;;;;;;;3.50;2.03;;;9.70;98.00;;;;;;5032164;28;20457;-68
2023/11/21 01:43:57;;;;;;;9.17;2.33;;;9.60;98.00;;;;;;5031680;28;20467;-68
2023/11/21 01:46:25;;;;;;;2.37;1.70;;;9.60;98.00;;;;;;5031939;28;20490;-68
2023/11/21 01:48:54;;;;;;;3.83;2.10;;;9.60;98.00;;;;;;5031645;28;20459;-68
2023/11/21 01:51:21;;;;;;;4.30;2.10;;;9.50;98.00;;;;;;5031564;28;20499;-67
2023/11/21 01:53:50;;;;;;;3.50;2.00;;;9.50;98.00;;;;;;5031709;28;20545;-68
2023/11/21 01:56:18;;;;;;;6.10;2.20;;;9.50;98.00;;;;;;5031882;28;20465;-69
2023/11/21 01:58:47;;;;;;;3.73;1.70;;;9.60;98.00;;;;;;5031556;28;20442;-68
2023/11/21 02:01:15;;;;;;;5.07;2.00;;;9.50;98.00;;;;;;5031428;28;20486;-68
2023/11/21 02:03:42;;;;;;;2.03;1.70;;;9.40;98.00;;;;;;5031766;28;20464;-69
2023/11/21 02:06:10;;;;;;;3.30;1.73;;;9.40;98.00;;;;;;5031399;28;20455;-68
2023/11/21 02:08:38;;;;;;;3.40;1.87;;;9.40;98.00;;;;;;5030525;28;20465;-68
2023/11/21 02:11:05;;;;;;;3.07;1.70;;;9.40;98.00;;;;;;5031443;28;20455;-68
2023/11/21 02:13:33;;;;;;;3.97;1.70;;;9.50;98.00;;;;;;5031486;28;20454;-68
2023/11/21 02:16:00;;;;;;;7.90;1.80;;;9.50;98.00;;;;;;5030159;28;20450;-68
2023/11/21 02:18:29;;;;;;;3.30;1.90;;;9.60;98.00;;;;;;5031607;28;20859;-69
2023/11/21 02:20:58;;;;;;;2.60;1.97;;;9.60;98.00;;;;;;5031485;28;20464;-68
2023/11/21 02:23:28;;;;;;;5.57;2.00;;;9.50;98.00;;;;;;5031487;28;20472;-69
2023/11/21 02:25:56;;;;;;;5.00;2.20;;;9.60;98.00;;;;;;5031512;28;20520;-70
2023/11/21 02:28:25;;;;;;;2.70;1.60;;;9.60;98.00;;;;;;5031477;28;20875;-68
2023/11/21 02:30:55;;;;;;;10.47;2.70;;;9.70;98.00;;;;;;5031437;28;20852;-68
2023/11/21 02:33:22;;;;;;;4.90;2.10;;;9.80;98.00;;;;;;5031136;28;20508;-69
2023/11/21 02:35:51;;;;;;;2.73;2.10;;;9.70;98.00;;;;;;5031349;28;20458;-70
2023/11/21 02:38:18;;;;;;;2.50;1.90;;;9.50;98.00;;;;;;5031345;28;20857;-68
2023/11/21 02:40:54;;;;;;;7.10;2.50;;;9.40;98.00;;;;;;5030037;28;20457;-68
2023/11/21 02:43:21;;;;;;;4.80;2.13;;;9.50;98.00;;;;;;5031443;28;20966;-68
2023/11/21 02:45:48;;;;;;;5.67;2.00;;;9.40;98.00;;;;;;5031385;28;20450;-68
2023/11/21 02:48:16;;;;;;;3.60;1.83;;;9.40;98.00;;;;;;5031338;28;21018;-69
2023/11/21 02:50:43;;;;;;;1.80;1.73;;;9.40;98.00;;;;;;5034785;28;20461;-69
2023/11/21 02:53:10;;;;;;;1.80;1.53;;;9.40;98.00;;;;;;5034678;28;20490;-67
2023/11/21 02:55:37;;;;;;;3.00;1.90;;;9.40;98.00;;;;;;5034560;28;20458;-69
2023/11/21 02:58:08;;;;;;;3.43;1.73;;;9.40;98.00;;;;;;5034675;28;20995;-68
2023/11/21 03:00:35;;;;;;;2.97;1.93;;;9.50;98.00;;;;;;5033664;28;20523;-69
2023/11/21 03:03:02;;;;;;;3.10;1.80;;;9.60;98.00;;;;;;5033538;28;20458;-68
2023/11/21 03:05:30;;;;;;;3.10;1.90;;;9.50;98.00;;;;;;5034688;28;20505;-68
2023/11/21 03:07:57;;;;;;;2.03;1.60;;;9.60;98.00;;;;;;5034436;28;20484;-68
2023/11/21 03:10:24;;;;;;;3.60;1.70;;;9.70;98.00;;;;;;5034584;28;20450;-68
2023/11/21 03:12:51;;;;;;;2.67;1.77;;;9.60;98.00;;;;;;5033390;28;20501;-68
2023/11/21 03:15:19;;;;;;;2.27;1.50;;;9.70;98.00;;;;;;5033418;28;20457;-68
2023/11/21 03:17:49;;;;;;;1.97;1.40;;;9.70;98.00;;;;;;5034740;28;20454;-68
2023/11/21 03:20:16;;;;;;;1.90;1.57;;;9.70;98.00;;;;;;5034628;28;20455;-68
2023/11/21 03:22:44;;;;;;;1.73;1.63;;;9.80;98.00;;;;;;5034469;28;21013;-69
2023/11/21 03:25:11;;;;;;;3.93;1.60;;;9.80;98.00;;;;;;5034006;28;20827;-68
2023/11/21 03:27:39;;;;;;;2.17;1.73;;;9.60;98.00;;;;;;5034716;28;20482;-68
2023/11/21 03:30:09;;;;;;;2.80;1.80;;;9.60;98.00;;;;;;5032907;28;20487;-68
2023/11/21 03:32:39;;;;;;;2.43;1.73;;;9.50;98.00;;;;;;5034033;28;20454;-69
2023/11/21 03:35:07;;;;;;;3.00;1.77;;;9.40;98.00;;;;;;5033975;28;20996;-68
2023/11/21 03:37:34;;;;;;;1.50;1.40;;;9.40;98.00;;;;;;5033983;28;20456;-69
2023/11/21 03:40:03;;;;;;;4.30;1.50;;;9.30;98.00;;;;;;5032490;28;20451;-68
2023/11/21 03:42:30;;;;;;;3.23;1.77;;;9.40;98.00;;;;;;5034079;28;20453;-68
2023/11/21 03:44:57;;;;;;;2.80;1.50;;;9.50;98.00;;;;;;5033631;28;20462;-69
2023/11/21 03:47:24;;;;;;;7.37;2.07;;;9.50;98.00;;;;;;5033591;28;20486;-68
2023/11/21 03:49:53;;;;;;;2.13;1.80;;;9.50;98.00;;;;;;5032417;28;20454;-68
2023/11/21 03:52:20;;;;;;;4.33;2.30;;;9.50;98.00;;;;;;5033405;28;20455;-68
2023/11/21 03:54:47;;;;;;;2.97;1.70;;;9.60;98.00;;;;;;5033564;28;20457;-69
2023/11/21 03:57:14;;;;;;;2.60;1.90;;;9.70;98.00;;;;;;5033545;28;21007;-68
2023/11/21 03:59:42;;;;;;;2.60;1.93;;;9.50;98.00;;;;;;5032096;28;20478;-68
2023/11/21 04:02:09;;;;;;;2.20;1.90;;;9.40;98.00;;;;;;5033301;28;20459;-68
2023/11/21 04:04:36;;;;;;;1.87;1.80;;;9.40;98.00;;;;;;5032391;28;20469;-68
2023/11/21 04:07:05;;;;;;;3.03;1.97;;;9.50;98.00;;;;;;5033382;28;20501;-68
2023/11/21 04:09:32;;;;;;;3.93;1.70;;;9.50;98.00;;;;;;5033232;28;20879;-68
2023/11/21 04:11:59;;;;;;;3.50;1.60;;;9.40;98.00;;;;;;5033215;28;20439;-68
2023/11/21 04:14:26;;;;;;;1.80;1.60;;;9.50;98.00;;;;;;5033231;28;20454;-69
2023/11/21 04:16:54;;;;;;;3.23;1.77;;;9.40;98.00;;;;;;5033068;28;20446;-70
2023/11/21 04:19:21;;;;;;;2.43;1.70;;;9.30;98.00;;;;;;5032933;28;20462;-68
2023/11/21 04:21:48;;;;;;;1.90;1.53;;;9.20;98.00;;;;;;5033180;28;20463;-68
2023/11/21 04:24:17;;;;;;;2.90;2.23;;;9.30;98.00;;;;;;5031832;28;20451;-69
2023/11/21 04:26:44;;;;;;;3.77;2.00;;;9.40;98.00;;;;;;5033121;28;20465;-68
2023/11/21 04:29:12;;;;;;;3.00;1.77;;;9.50;98.00;;;;;;5032814;28;20488;-68
2023/11/21 04:31:39;;;;;;;3.00;2.00;;;9.50;98.00;;;;;;5031962;28;20506;-68
2023/11/21 04:34:06;;;;;;;4.60;1.87;;;9.70;98.00;;;;;;5032993;28;20455;-69
2023/11/21 04:36:33;;;;;;;3.77;1.60;;;9.70;98.00;;;;;;5032657;28;20446;-68
2023/11/21 04:39:01;;;;;;;2.63;1.80;;;9.60;98.00;;;;;;5033049;28;20452;-68
2023/11/21 04:41:31;;;;;;;2.80;1.70;;;9.60;98.00;;;;;;5032920;28;20451;-70
2023/11/21 04:43:58;;;;;;;2.30;1.90;;;9.60;98.00;;;;;;5032543;28;20490;-69
2023/11/21 04:46:25;;;;;;;3.10;1.73;;;9.50;98.00;;;;;;5032502;28;20490;-68
2023/11/21 04:48:52;;;;;;;4.07;1.70;;;9.40;98.00;;;;;;5032828;28;20488;-68
2023/11/21 04:51:19;;;;;;;3.30;1.63;;;9.50;98.00;;;;;;5032673;28;20450;-70
2023/11/21 04:53:46;;;;;;;2.17;1.80;;;9.40;98.00;;;;;;5032673;28;20450;-68
2023/11/21 04:56:15;;;;;;;3.00;1.80;;;9.40;98.00;;;;;;5031401;28;20858;-69
2023/11/21 04:58:44;;;;;;;2.20;1.53;;;9.50;98.00;;;;;;5032516;28;20956;-69
2023/11/21 05:01:11;;;;;;;2.67;1.77;;;9.50;98.00;;;;;;5032759;28;20451;-69
2023/11/21 05:03:40;;;;;;;1.60;1.50;;;9.50;98.00;;;;;;5032895;28;20462;-69
2023/11/21 05:06:10;;;;;;;2.90;1.60;;;9.50;98.00;;;;;;5032285;28;20840;-68
2023/11/21 05:08:37;;;;;;;2.37;1.70;;;9.40;98.00;;;;;;5032393;28;20486;-69
2023/11/21 05:11:07;;;;;;;4.00;1.67;;;9.40;98.00;;;;;;5031598;28;20454;-68
2023/11/21 05:13:35;;;;;;;2.10;1.60;;;9.40;98.00;;;;;;5032165;28;20543;-70
2023/11/21 05:16:11;;;;;;;3.17;1.80;;;9.40;98.00;;;;;;5032232;28;20463;-68
2023/11/21 05:18:38;;;;;;;2.67;1.50;;;9.30;98.00;;;;;;5031936;28;20537;-69
2023/11/21 05:21:06;;;;;;;3.43;1.67;;;9.20;98.00;;;;;;5031861;28;20509;-68
2023/11/21 05:23:33;;;;;;;2.37;1.77;;;9.20;98.00;;;;;;5031805;28;20459;-70
2023/11/21 05:26:01;;;;;;;2.23;1.60;;;9.20;98.00;;;;;;5031876;28;20546;-68
2023/11/21 05:28:28;;;;;;;2.07;1.70;;;9.30;98.00;;;;;;5031500;28;20489;-69
2023/11/21 05:30:56;;;;;;;2.47;1.70;;;9.20;98.00;;;;;;5031760;28;20945;-69
2023/11/21 05:33:25;;;;;;;1.93;1.60;;;9.10;98.00;;;;;;5030422;28;21206;-68
2023/11/21 05:36:01;;;;;;;1.90;1.67;;;9.20;98.00;;;;;;5031681;28;20460;-69
2023/11/21 05:38:29;;;;;;;2.33;1.77;;;9.20;98.00;;;;;;5014351;28;20958;-68
2023/11/21 05:40:56;;;;;;;2.30;1.80;;;9.20;98.00;;;;;;5030558;28;20481;-69
2023/11/21 05:43:25;;;;;;;3.00;1.80;;;9.10;98.00;;;;;;5031475;28;20466;-68
2023/11/21 05:45:52;;;;;;;1.50;1.50;;;9.10;98.00;;;;;;5030326;28;20942;-68
2023/11/21 05:48:20;;;;;;;2.10;1.53;;;9.00;98.00;;;;;;5031652;28;20579;-69
2023/11/21 05:50:49;;;;;;;2.53;1.90;;;9.00;98.00;;;;;;5030539;28;20455;-68
2023/11/21 05:53:16;;;;;;;3.13;1.90;;;9.00;98.00;;;;;;5031554;28;20511;-69
2023/11/21 05:55:43;;;;;;;2.73;1.60;;;9.00;98.00;;;;;;5030706;28;20821;-68
2023/11/21 05:58:10;;;;;;;4.70;2.00;;;9.10;98.00;;;;;;5031638;28;20467;-69
2023/11/21 06:00:38;;;;;;;3.40;1.97;;;9.20;98.00;;;;;;5031613;28;20469;-68
2023/11/21 06:03:06;;;;;;;2.80;1.67;;;9.10;98.00;;;;;;5031539;28;20455;-68
2023/11/21 06:05:34;;;;;;;2.70;1.63;;;9.00;98.00;;;;;;5031554;28;20483;-68
2023/11/21 06:08:02;;;;;;;3.63;2.00;;;9.00;98.00;;;;;;5030491;28;20577;-69
2023/11/21 06:10:29;;;;;;;3.20;2.10;;;9.00;98.00;;;;;;5031700;28;20454;-68
2023/11/21 06:12:57;;;;;;;3.87;1.90;;;8.90;98.00;;;;;;5031608;28;20473;-68
2023/11/21 06:15:25;;;;;;;6.47;2.00;;;8.90;98.00;;;;;;5031505;28;20523;-68
2023/11/21 06:17:53;;;;;;;2.80;2.00;;;8.90;98.00;;;;;;5030364;28;21008;-69
2023/11/21 06:20:21;;;;;;;1.80;1.60;;;8.90;98.00;;;;;;5031485;28;20818;-69
2023/11/21 06:22:49;;;;;;;2.63;1.70;;;9.00;98.00;;;;;;5031638;28;20938;-68
2023/11/21 06:25:18;;;;;;;1.80;1.63;;;8.90;98.00;;;;;;5034879;28;20460;-68
2023/11/21 06:27:47;;;;;;;2.90;1.80;;;8.80;98.00;;;;;;5035311;28;20457;-68
2023/11/21 06:30:16;;;;;;;3.30;1.63;;;8.80;98.00;;;;;;5035150;28;20467;-69
2023/11/21 06:32:45;;;;;;;2.23;1.50;;;8.80;98.00;;;;;;5035276;28;20978;-69
2023/11/21 06:35:15;;;;;;;2.80;1.80;;;8.80;98.00;;;;;;5034956;28;21000;-68
2023/11/21 06:37:47;;;;;;;1.80;1.50;;;8.90;98.00;;;;;;5035289;28;20548;-68
2023/11/21 06:40:16;;;;;;;2.23;1.77;;;9.00;98.00;;;;;;5035214;28;20486;-69
2023/11/21 06:42:44;;;;;;;2.47;1.70;;;9.10;98.00;;;;;;5034186;28;20463;-68
2023/11/21 06:45:13;;;;;;;1.80;1.60;;;9.10;98.00;;;;;;5034776;28;20495;-68
2023/11/21 06:47:40;;;;;;;2.20;1.60;;;9.00;98.00;;;;;;5035241;28;20465;-69
2023/11/21 06:50:08;;;;;;;1.83;1.47;;;9.10;98.00;;;;;;5034626;28;20493;-68
2023/11/21 06:52:35;;;;;;;1.73;1.53;;;9.30;98.00;;;;;;5034662;28;20454;-68
2023/11/21 06:55:03;;;;;;;2.90;1.90;;;9.10;98.00;;;;;;5034568;28;20446;-68
2023/11/21 06:57:30;;;;;;;2.47;1.93;;;9.10;98.00;;;;;;5034608;28;20461;-64
2023/11/21 06:59:58;;;;;;;11.73;3.50;;;9.00;98.00;;;;;;5034225;28;20456;-64
2023/11/21 07:02:25;;;;;;;4.13;2.20;;;8.90;98.00;;;;;;5034126;28;20469;-63
2023/11/21 07:04:55;;;;;;;2.53;1.90;;;8.90;98.00;;;;;;5032987;28;20460;-64
2023/11/21 07:07:22;;;;;;;4.40;2.00;;;8.90;98.00;;;;;;5034435;28;20485;-63
2023/11/21 07:09:49;;;;;;;3.07;1.90;;;8.90;98.00;;;;;;5034376;28;20510;-63
2023/11/21 07:12:23;;;;;;;6.37;2.10;;;8.90;98.00;;;;;;5034189;28;20848;-64
2023/11/21 07:14:50;;;;;;;4.43;1.87;;;9.10;98.00;;;;;;5033245;28;20453;-64
2023/11/21 07:17:18;;;;;;;3.50;2.10;;;9.30;98.00;;;;;;5034266;28;20458;-64
2023/11/21 07:19:45;;;;;;;3.70;2.00;;;9.30;98.00;;;;;;5034319;28;20825;-63
2023/11/21 07:22:13;;;;;;;7.37;3.37;;;9.40;98.00;;;;;;5034061;28;20454;-64
2023/11/21 07:24:40;;;;;;;5.87;2.80;;;9.40;98.00;;;;;;5034339;28;20535;-64
2023/11/21 07:27:07;;;;;;;7.53;2.30;;;9.30;98.00;;;;;;5034126;28;20497;-63
2023/11/21 07:29:34;;;;;;;5.30;2.30;;;9.20;98.00;;;;;;5033811;28;20486;-64
2023/11/21 07:32:01;;;;;;;4.40;1.97;;;9.20;98.00;;;;;;5034078;28;20456;-63
2023/11/21 07:34:30;;;;;;;3.73;2.10;;;9.20;98.00;;;;;;5033522;28;20458;-63
2023/11/21 07:36:58;;;;;;;3.23;1.80;;;9.30;98.00;;;;;;5034127;28;20457;-64
2023/11/21 07:39:25;;;;;;;2.43;1.80;;;9.30;98.00;;;;;;5034064;28;20477;-63
2023/11/21 07:41:52;;;;;;;5.47;2.10;;;9.30;98.00;;;;;;5034173;28;20954;-64
2023/11/21 07:44:19;;;;;;;8.60;3.80;;;9.30;98.00;;;;;;5032394;28;20463;-64
2023/11/21 07:46:47;;;;;;;4.17;2.60;;;9.20;98.00;;;;;;5032740;28;20455;-64
2023/11/21 07:49:15;;;;;;;4.80;1.93;;;9.20;98.00;;;;;;5033700;28;20486;-64
2023/11/21 07:51:45;;;;;;;5.33;2.97;;;9.20;98.00;;;;;;5033852;28;20529;-64
2023/11/21 07:54:12;;;;;;;7.90;3.90;;;9.20;98.00;;;;;;5032210;28;20508;-64
2023/11/21 07:56:39;;;;;;;7.10;3.40;;;9.30;98.00;;;;;;5033618;28;20956;-64
2023/11/21 07:59:06;;;;;;;9.80;3.43;;;9.40;98.00;;;;;;5033673;28;20465;-64
2023/11/21 08:01:33;;;;;;;4.60;2.70;;;9.40;98.00;;;;;;5033761;28;20457;-64
2023/11/21 08:04:03;;;;;;;3.90;2.60;;;9.40;98.00;;;;;;5033423;28;20512;-63
2023/11/21 08:06:30;;;;;;;9.97;3.63;;;9.50;98.00;;;;;;5032374;28;20451;-64
2023/11/21 08:09:08;;;;;;;10.03;3.70;;;9.60;98.00;;;;;;5033361;28;21001;-63
2023/11/21 08:11:35;;;;;;;7.63;3.10;;;9.60;98.00;;;;;;5033294;28;20453;-64
2023/11/21 08:14:02;;;;;;;7.73;3.10;;;9.60;98.00;;;;;;5033704;28;20454;-63
2023/11/21 08:16:29;;;;;;;6.17;3.27;;;9.60;98.00;;;;;;5033326;28;20455;-64
2023/11/21 08:18:56;;;;;;;10.50;2.60;;;9.70;98.00;;;;;;5033544;28;20926;-64
2023/11/21 08:21:25;;;;;;;5.03;2.90;;;9.70;98.00;;;;;;5033362;28;20462;-64
2023/11/21 08:23:55;;;;;;;5.20;3.00;;;9.80;98.00;;;;;;5033318;28;20451;-64
2023/11/21 08:26:24;;;;;;;4.53;2.90;;;9.90;98.00;;;;;;5032992;28;20465;-64
2023/11/21 08:28:52;;;;;;;6.90;3.13;;;9.90;98.00;;;;;;5032931;28;20479;-64
2023/11/21 08:31:25;;;;;;;4.57;2.80;;;9.90;98.00;;;;;;5032751;28;20447;-64
2023/11/21 08:33:52;;;;;;;6.27;3.00;;;9.90;98.00;;;;;;5033051;28;20488;-63
2023/11/21 08:36:20;;;;;;;4.47;2.60;;;10.00;98.00;;;;;;5032648;28;20453;-64
2023/11/21 08:38:48;;;;;;;5.33;2.90;;;10.20;98.00;;;;;;5032758;28;20453;-64
2023/11/21 08:41:15;;;;;;;5.77;2.93;;;10.40;98.00;;;;;;5030947;28;20948;-64
2023/11/21 08:43:44;;;;;;;4.30;2.40;;;10.60;98.00;;;;;;5032581;28;20586;-64
2023/11/21 08:46:11;;;;;;;4.10;2.33;;;10.70;98.00;;;;;;5031540;28;20805;-62
2023/11/21 08:48:39;;;;;;;3.03;2.00;;;10.70;98.00;;;;;;5032558;28;20492;-64
2023/11/21 08:51:07;;;;;;;3.90;2.17;;;10.80;98.00;;;;;;5032200;28;20487;-64
2023/11/21 08:53:35;;;;;;;2.90;2.10;;;10.70;98.00;;;;;;5032410;28;20939;-64
2023/11/21 08:56:04;;;;;;;2.87;1.93;;;10.50;98.00;;;;;;5032261;28;20461;-64
2023/11/21 08:58:32;;;;;;;6.10;2.20;;;10.40;98.00;;;;;;5032001;28;20442;-64
2023/11/21 09:01:01;;;;;;;4.30;2.03;;;10.40;98.00;;;;;;5032027;28;20457;-64
2023/11/21 09:03:28;;;;;;;3.47;2.17;;;10.30;98.00;;;;;;5032156;28;20459;-64
2023/11/21 09:05:55;;;;;;;2.83;2.00;;;10.30;98.00;;;;;;5030944;28;20456;-64
2023/11/21 09:08:23;;;;;;;2.43;1.80;;;10.40;98.00;;;;;;5030369;28;20527;-64
2023/11/21 09:10:50;;;;;;;2.53;1.80;;;10.40;98.00;;;;;;5031904;28;20578;-64
2023/11/21 09:13:17;;;;;;;2.67;1.80;;;10.70;98.00;;;;;;5031933;28;20823;-64
2023/11/21 09:15:46;;;;;;;2.10;1.70;;;10.80;98.00;;;;;;5030849;28;20531;-64
2023/11/21 09:18:15;;;;;;;1.70;1.53;;;10.90;98.00;;;;;;5032011;28;20447;-64
2023/11/21 09:20:42;;;;;;;3.97;2.13;;;11.00;98.00;;;;;;5031966;28;20448;-64
2023/11/21 09:23:11;;;;;;;2.90;1.80;;;10.90;98.00;;;;;;5031947;28;20446;-64
2023/11/21 09:25:40;;;;;;;3.83;2.27;;;10.80;98.00;;;;;;5031496;28;20479;-63
2023/11/21 09:28:08;;;;;;;2.30;1.90;;;10.60;98.00;;;;;;5031844;28;20463;-64
2023/11/21 09:30:35;;;;;;;4.53;2.00;;;10.50;98.00;;;;;;5031587;28;21021;-64
2023/11/21 09:33:02;;;;;;;2.97;2.07;;;10.50;98.00;;;;;;5031927;28;20554;-64
2023/11/21 09:35:31;;;;;;;4.10;1.87;;;10.60;98.00;;;;;;5031571;28;20836;-64
2023/11/21 09:37:58;;;;;;;2.60;2.10;;;10.60;98.00;;;;;;5031890;28;20460;-65
2023/11/21 09:40:26;;;;;;;3.53;1.73;;;10.60;98.00;;;;;;5031374;28;20464;-64
2023/11/21 09:42:58;;;;;;;2.73;1.80;;;10.60;98.00;;;;;;5031053;28;20456;-64
2023/11/21 09:45:28;;;;;;;2.07;1.70;;;10.60;98.00;;;;;;5031906;28;20490;-63
2023/11/21 09:47:56;;;;;;;2.43;1.70;;;10.80;98.00;;;;;;5031943;28;20456;-64
2023/11/21 09:50:26;;;;;;;3.50;2.00;;;10.80;98.00;;;;;;5031613;28;20574;-64
2023/11/21 09:53:02;;;;;;;4.07;1.90;;;10.70;98.00;;;;;;5031943;28;20470;-64
2023/11/21 09:55:31;;;;;;;2.27;1.90;;;10.90;98.00;;;;;;5031860;28;20853;-63
2023/11/21 09:58:00;;;;;;;3.10;1.70;;;11.00;98.00;;;;;;5033382;28;20457;-63
2023/11/21 10:00:28;;;;;;;5.63;1.70;;;11.00;98.00;;;;;;5034370;28;20450;-64
2023/11/21 10:02:56;;;;;;;2.47;1.60;;;11.00;98.00;;;;;;5035005;28;20881;-63
2023/11/21 10:05:23;;;;;;;1.80;1.50;;;11.20;98.00;;;;;;5035457;28;20457;-63
2023/11/21 10:07:51;;;;;;;1.57;1.53;;;11.20;98.00;;;;;;5035761;28;20840;-63
2023/11/21 10:10:25;;;;;;;1.80;1.40;;;11.20;98.00;;;;;;5035407;28;20489;-64
2023/11/21 10:12:55;;;;;;;1.77;1.30;;;11.30;98.00;;;;;;5034558;28;20860;-64
2023/11/21 10:15:25;;;;;;;1.50;1.40;;;11.30;98.00;;;;;;5035125;28;20451;-64
2023/11/21 10:17:54;;;;;;;2.13;1.50;;;11.50;98.00;;;;;;5034440;28;20464;-64
2023/11/21 10:20:21;;;;;;;2.50;1.40;;;11.50;98.00;;;;;;5033307;28;20505;-64
2023/11/21 10:22:48;;;;;;;2.53;1.40;;;11.50;98.00;;;;;;5034854;28;20453;-64
2023/11/21 10:25:16;;;;;;;4.43;1.50;;;11.50;98.00;;;;;;5034747;28;20466;-64
2023/11/21 10:27:51;;;;;;;1.80;1.40;;;11.40;98.00;;;;;;5033606;28;20468;-64
2023/11/21 10:30:18;;;;;;;1.47;1.30;;;11.40;98.00;;;;;;5034838;28;20486;-64
2023/11/21 10:32:45;;;;;;;1.30;1.20;;;11.30;98.00;;;;;;5035011;28;20472;-64
2023/11/21 10:35:12;;;;;;;1.70;1.30;;;11.20;98.00;;;;;;5033417;28;20454;-65
2023/11/21 10:37:40;;;;;;;1.50;1.30;;;11.20;98.00;;;;;;5026020;28;20986;-64
2023/11/21 10:40:11;;;;;;;2.00;1.60;;;11.40;98.00;;;;;;5033376;28;20549;-64
2023/11/21 10:42:39;;;;;;;1.83;1.47;;;11.40;98.00;;;;;;5034792;28;20450;-64
2023/11/21 10:45:13;;;;;;;1.67;1.40;;;11.40;98.00;;;;;;5034286;28;20535;-64
2023/11/21 10:47:41;;;;;;;3.13;1.67;;;11.70;98.00;;;;;;5034392;28;20465;-65
2023/11/21 10:50:11;;;;;;;1.60;1.40;;;11.80;98.00;;;;;;5034650;28;20547;-64
2023/11/21 10:52:39;;;;;;;2.87;1.70;;;12.00;98.00;;;;;;5033855;28;20458;-65
2023/11/21 10:55:18;;;;;;;2.43;1.50;;;12.10;98.00;;;;;;5033573;28;20451;-63
2023/11/21 10:57:48;;;;;;;1.93;1.60;;;12.10;98.00;;;;;;5034086;28;20489;-64
2023/11/21 11:00:20;;;;;;;2.70;1.53;;;11.90;98.00;;;;;;5032640;28;20513;-63
2023/11/21 11:02:50;;;;;;;1.63;1.47;;;11.90;98.00;;;;;;5033988;28;20460;-64
2023/11/21 11:05:21;;;;;;;2.20;1.50;;;11.90;98.00;;;;;;5033532;28;20964;-63
2023/11/21 11:07:52;;;;;;;1.50;1.30;;;11.70;98.00;;;;;;5033717;28;20453;-63
2023/11/21 11:10:22;;;;;;;2.30;1.53;;;11.50;98.00;;;;;;5032401;28;20492;-64
2023/11/21 11:12:52;;;;;;;1.70;1.50;;;11.40;98.00;;;;;;5033893;28;20551;-64
2023/11/21 11:15:21;;;;;;;2.40;1.57;;;11.50;98.00;;;;;;5033526;28;20457;-64
2023/11/21 11:17:49;;;;;;;1.60;1.30;;;11.50;98.00;;;;;;5033667;28;20520;-64
2023/11/21 11:20:20;;;;;;;3.13;1.43;;;11.50;98.00;;;;;;5033349;28;20458;-63
2023/11/21 11:22:58;;;;;;;2.37;1.53;;;11.50;98.00;;;;;;5033489;28;20486;-64
2023/11/21 11:25:51;;;;;;;3.00;2.00;;;11.50;98.00;;;;;;5033263;28;20456;-63
2023/11/21 11:28:22;;;;;;;2.20;1.67;;;11.50;98.00;;;;;;5031493;28;20500;-63
2023/11/21 11:31:03;;;;;;;3.10;1.83;;;11.50;98.00;;;;;;5033333;28;20485;-64
2023/11/21 11:33:39;;;;;;;3.30;1.80;;;11.50;98.00;;;;;;5033691;28;20528;-63
2023/11/21 11:36:14;;;;;;;2.67;1.90;;;11.40;98.00;;;;;;5033266;28;20872;-63
2023/11/21 11:38:49;;;;;;;5.00;2.90;;;11.30;98.00;;;;;;5033794;28;20562;-63
2023/11/21 11:41:27;;;;;;;2.30;1.97;;;11.30;98.00;;;;;;5032895;28;20462;-63
2023/11/21 11:43:54;;;;;;;2.70;2.20;;;11.30;98.00;;;;;;5033233;28;20498;-63
2023/11/21 11:46:42;;;;;;;2.93;2.20;;;11.20;98.00;;;;;;5033017;28;20460;-63
2023/11/21 11:49:11;;;;;;;4.33;2.27;;;11.30;98.00;;;;;;5033026;28;20528;-63
2023/11/21 11:51:38;;;;;;;3.07;2.00;;;11.20;98.00;;;;;;5032809;28;20488;-64
2023/11/21 11:54:07;;;;;;;3.40;1.90;;;11.00;98.00;;;;;;5031689;28;20581;-64
2023/11/21 11:56:37;;;;;;;3.00;2.30;;;11.10;98.00;;;;;;5032810;28;20500;-63
2023/11/21 11:59:06;;;;;;;4.70;2.40;;;11.00;98.00;;;;;;5031544;28;20453;-63
2023/11/21 12:01:38;;;;;;;3.77;2.03;;;11.00;98.00;;;;;;5032630;28;20449;-63
2023/11/21 12:04:30;;;;;;;2.67;2.00;;;11.10;98.00;;;;;;5032723;28;20450;-63
2023/11/21 12:07:03;;;;;;;3.03;1.80;;;11.10;98.00;;;;;;5032684;28;20475;-64
2023/11/21 12:09:31;;;;;;;3.10;2.30;;;11.10;98.00;;;;;;5032432;28;20465;-63
2023/11/21 12:11:58;;;;;;;5.00;2.20;;;11.30;98.00;;;;;;5032444;28;20478;-64
2023/11/21 12:14:25;;;;;;;4.50;2.90;;;11.50;98.00;;;;;;5032319;28;21002;-63
2023/11/21 12:16:55;;;;;;;3.80;2.43;;;11.50;98.00;;;;;;5032390;28;20508;-64
2023/11/21 12:19:23;;;;;;;5.57;2.70;;;11.40;98.00;;;;;;5032383;28;20461;-64
2023/11/21 12:21:51;;;;;;;1.87;1.70;;;11.50;98.00;;;;;;5031024;28;20528;-63
2023/11/21 12:24:19;;;;;;;3.00;1.73;;;11.40;98.00;;;;;;5032135;28;20515;-64
2023/11/21 12:26:47;;;;;;;1.97;1.60;;;11.30;98.00;;;;;;5032332;28;20832;-68
2023/11/21 12:29:16;;;;;;;5.60;1.80;;;11.30;98.00;;;;;;5031957;28;20457;-64
2023/11/21 12:31:44;;;;;;;4.07;1.80;;;11.30;98.00;;;;;;5014734;28;20493;-64
2023/11/21 12:34:13;;;;;;;2.97;1.90;;;11.40;98.00;;;;;;5032042;28;20464;-64
2023/11/21 12:36:40;;;;;;;2.47;1.83;;;11.20;98.00;;;;;;5032006;28;20791;-65
2023/11/21 12:39:09;;;;;;;2.80;1.73;;;10.90;98.00;;;;;;5031912;28;20519;-64
2023/11/21 12:41:36;;;;;;;3.57;2.00;;;10.80;98.00;;;;;;5031981;28;20812;-64
2023/11/21 12:44:03;;;;;;;2.60;1.70;;;10.90;98.00;;;;;;5031798;28;20464;-64
2023/11/21 12:46:34;;;;;;;2.43;1.50;;;10.90;98.00;;;;;;5031791;28;20521;-64
2023/11/21 12:49:01;;;;;;;3.10;2.00;;;11.00;98.00;;;;;;5032045;28;20821;-64
2023/11/21 12:51:30;;;;;;;2.20;1.73;;;10.90;98.00;;;;;;5031722;28;20517;-64
2023/11/21 12:53:58;;;;;;;3.30;1.67;;;11.10;98.00;;;;;;5031745;28;20453;-64
2023/11/21 12:56:25;;;;;;;2.73;1.90;;;11.10;98.00;;;;;;5031494;28;20486;-64
2023/11/21 12:58:56;;;;;;;2.43;1.63;;;11.30;98.00;;;;;;5031788;28;20836;-64